Time;durP1;ratioP1;P1;durP2;ratioP2;P2;SDS_P1;SDS_P2;PMS_P1;PMS_P2;Temp;Humidity;BMP_temperature;BMP_pressure;BME280_temperature;BME280_humidity;BME280_pressure;Samples;Min_cycle;Max_cycle;Signal;HPM_P1;HPM_P2
2024/01/29 00:01:53;;;;;;;1.53;1.20;;;8.00;96.50;;;;;;4971848;28;20476;-79
2024/01/29 00:04:21;;;;;;;1.57;1.30;;;8.00;96.70;;;;;;4977644;28;20473;-78
2024/01/29 00:06:48;;;;;;;1.50;1.20;;;7.90;96.80;;;;;;4972366;28;20485;-79
2024/01/29 00:09:15;;;;;;;1.60;1.30;;;7.90;96.70;;;;;;4975675;28;20560;-79
2024/01/29 00:11:42;;;;;;;1.60;1.30;;;7.90;96.90;;;;;;4975006;28;20477;-78
2024/01/29 00:14:09;;;;;;;1.57;1.20;;;7.90;97.20;;;;;;4976997;28;20490;-78
2024/01/29 00:16:35;;;;;;;1.50;1.27;;;7.90;97.20;;;;;;4963789;28;20505;-78
2024/01/29 00:19:03;;;;;;;1.53;1.20;;;7.90;97.40;;;;;;4980568;28;21000;-78
2024/01/29 00:21:31;;;;;;;1.50;1.20;;;7.90;97.50;;;;;;4972454;28;20528;-79
2024/01/29 00:24:00;;;;;;;1.50;1.20;;;7.90;97.40;;;;;;4981464;28;20976;-78
2024/01/29 00:26:27;;;;;;;1.60;1.30;;;7.90;97.60;;;;;;4969337;28;21061;-78
2024/01/29 00:28:54;;;;;;;1.60;1.30;;;7.90;97.70;;;;;;4986224;28;20466;-78
2024/01/29 00:31:22;;;;;;;1.60;1.30;;;7.90;98.00;;;;;;4972043;28;20487;-78
2024/01/29 00:33:49;;;;;;;1.50;1.20;;;7.90;97.80;;;;;;4993166;28;20482;-78
2024/01/29 00:36:16;;;;;;;1.60;1.30;;;7.90;97.80;;;;;;4975905;28;20540;-78
2024/01/29 00:38:44;;;;;;;1.60;1.30;;;8.00;97.80;;;;;;4991760;28;20468;-78
2024/01/29 00:41:11;;;;;;;1.57;1.20;;;8.00;97.70;;;;;;4972183;28;21262;-79
2024/01/29 00:43:37;;;;;;;1.60;1.40;;;8.00;97.80;;;;;;4988492;28;21034;-78
2024/01/29 00:46:04;;;;;;;1.63;1.53;;;8.00;97.80;;;;;;4976349;28;21024;-79
2024/01/29 00:48:31;;;;;;;1.53;1.20;;;8.00;97.90;;;;;;4999659;28;20612;-80
2024/01/29 00:50:58;;;;;;;1.53;1.20;;;8.00;97.90;;;;;;4965031;28;20864;-78
2024/01/29 00:53:25;;;;;;;3.00;2.80;;;8.00;97.90;;;;;;4993709;28;20491;-79
2024/01/29 00:55:53;;;;;;;1.53;1.17;;;8.00;97.80;;;;;;4969260;28;20527;-78
2024/01/29 00:58:20;;;;;;;1.50;1.20;;;8.00;97.90;;;;;;4992836;28;20520;-81
2024/01/29 01:00:48;;;;;;;1.57;1.20;;;8.00;97.90;;;;;;4968802;28;20466;-79
2024/01/29 01:03:15;;;;;;;1.53;1.20;;;8.00;97.90;;;;;;4990988;28;20585;-79
2024/01/29 01:05:42;;;;;;;1.50;1.20;;;8.00;97.70;;;;;;4974269;28;20568;-78
2024/01/29 01:08:09;;;;;;;1.60;1.20;;;8.00;97.90;;;;;;4981956;28;20569;-78
2024/01/29 01:10:36;;;;;;;1.50;1.20;;;8.00;97.90;;;;;;4975756;28;20489;-78
2024/01/29 01:13:04;;;;;;;3.20;2.70;;;8.00;98.00;;;;;;4986139;28;20496;-79
2024/01/29 01:15:31;;;;;;;1.60;1.40;;;8.00;98.00;;;;;;4975547;28;20471;-78
2024/01/29 01:17:58;;;;;;;1.50;1.17;;;7.90;98.10;;;;;;4985625;28;20786;-78
2024/01/29 01:20:25;;;;;;;1.50;1.17;;;8.00;98.20;;;;;;4979518;28;20840;-78
2024/01/29 01:22:52;;;;;;;1.50;1.20;;;7.90;98.20;;;;;;4988916;28;20487;-78
2024/01/29 01:25:18;;;;;;;1.53;1.20;;;8.00;98.20;;;;;;4983147;28;20466;-78
2024/01/29 01:27:45;;;;;;;1.50;1.20;;;8.00;98.20;;;;;;4976146;28;20485;-78
2024/01/29 01:30:13;;;;;;;1.50;1.20;;;8.00;98.20;;;;;;4976329;28;20486;-78
2024/01/29 01:32:40;;;;;;;1.53;1.20;;;8.00;98.00;;;;;;4979854;28;20493;-78
2024/01/29 01:35:07;;;;;;;1.53;1.20;;;8.00;98.10;;;;;;4986719;28;20465;-77
2024/01/29 01:37:34;;;;;;;1.50;1.20;;;8.00;98.10;;;;;;4980942;28;20480;-78
2024/01/29 01:40:01;;;;;;;1.60;1.20;;;8.00;98.10;;;;;;4983383;28;20458;-78
2024/01/29 01:42:28;;;;;;;1.50;1.20;;;8.00;98.20;;;;;;4984146;28;20491;-78
2024/01/29 01:44:55;;;;;;;1.50;1.20;;;8.00;98.20;;;;;;4986337;28;20469;-77
2024/01/29 01:47:23;;;;;;;1.50;1.30;;;8.00;98.20;;;;;;4986165;28;20491;-77
2024/01/29 01:49:50;;;;;;;1.60;1.30;;;8.00;98.10;;;;;;4984668;28;20468;-77
2024/01/29 01:52:18;;;;;;;1.60;1.30;;;8.00;98.10;;;;;;4981373;28;20477;-78
2024/01/29 01:54:45;;;;;;;1.57;1.20;;;8.00;98.00;;;;;;4983158;28;20493;-79
2024/01/29 01:57:13;;;;;;;1.53;1.23;;;8.00;98.00;;;;;;4977701;28;20485;-79
2024/01/29 01:59:40;;;;;;;1.70;1.47;;;8.00;97.90;;;;;;4983465;28;20474;-79
2024/01/29 02:02:08;;;;;;;1.57;1.20;;;8.00;97.80;;;;;;4970536;28;20489;-79
2024/01/29 02:04:36;;;;;;;1.60;1.30;;;8.00;98.10;;;;;;4987532;28;20461;-79
2024/01/29 02:07:03;;;;;;;1.50;1.20;;;7.90;98.20;;;;;;4977902;28;20496;-79
2024/01/29 02:09:31;;;;;;;1.57;1.20;;;7.90;98.20;;;;;;4985856;28;20948;-81
2024/01/29 02:11:57;;;;;;;1.60;1.30;;;7.90;98.20;;;;;;4975296;28;21026;-79
2024/01/29 02:14:24;;;;;;;1.53;1.20;;;7.90;98.20;;;;;;4985068;28;20637;-80
2024/01/29 02:16:51;;;;;;;1.50;1.20;;;7.90;98.20;;;;;;4976163;28;20476;-79
2024/01/29 02:19:18;;;;;;;1.70;1.50;;;7.90;98.20;;;;;;4985285;28;20538;-79
2024/01/29 02:21:47;;;;;;;1.60;1.20;;;7.80;98.20;;;;;;4977528;28;20536;-79
2024/01/29 02:24:15;;;;;;;1.60;1.30;;;7.80;98.20;;;;;;4988391;28;20470;-78
2024/01/29 02:26:46;;;;;;;1.60;1.30;;;7.80;98.20;;;;;;4972160;28;20493;-78
2024/01/29 02:29:13;;;;;;;1.60;1.40;;;7.70;98.20;;;;;;4984637;28;20466;-77
2024/01/29 02:31:39;;;;;;;1.60;1.37;;;7.70;98.20;;;;;;4969541;28;20485;-78
2024/01/29 02:34:06;;;;;;;1.53;1.30;;;7.70;98.20;;;;;;4988502;28;20494;-78
2024/01/29 02:36:33;;;;;;;1.50;1.20;;;7.60;98.20;;;;;;4970886;28;20483;-77
2024/01/29 02:39:00;;;;;;;1.53;1.20;;;7.60;98.20;;;;;;4986560;28;20473;-79
2024/01/29 02:41:28;;;;;;;1.50;1.20;;;7.60;98.20;;;;;;4976757;28;20476;-78
2024/01/29 02:43:54;;;;;;;1.60;1.30;;;7.60;98.20;;;;;;4988079;28;20485;-78
2024/01/29 02:46:21;;;;;;;1.53;1.20;;;7.60;98.20;;;;;;4979772;28;20486;-78
2024/01/29 02:48:48;;;;;;;3.20;2.40;;;7.50;98.20;;;;;;4987916;28;20477;-78
2024/01/29 02:51:15;;;;;;;1.60;1.30;;;7.50;98.20;;;;;;4969014;28;20664;-80
2024/01/29 02:53:42;;;;;;;1.50;1.20;;;7.50;98.20;;;;;;4983369;28;20576;-77
2024/01/29 02:56:08;;;;;;;1.60;1.50;;;7.50;98.20;;;;;;4970845;28;20499;-78
2024/01/29 02:58:37;;;;;;;1.53;1.20;;;7.50;98.20;;;;;;4987295;28;20469;-78
2024/01/29 03:01:04;;;;;;;1.53;1.20;;;7.50;98.20;;;;;;4957821;28;20493;-78
2024/01/29 03:03:30;;;;;;;1.57;1.20;;;7.50;98.20;;;;;;4992430;28;20488;-78
2024/01/29 03:05:57;;;;;;;1.57;1.30;;;7.50;98.20;;;;;;4974878;28;20501;-78
2024/01/29 03:08:24;;;;;;;1.60;1.30;;;7.50;98.20;;;;;;4999810;28;20484;-78
2024/01/29 03:10:51;;;;;;;1.50;1.20;;;7.50;98.20;;;;;;4970440;28;21000;-78
2024/01/29 03:13:17;;;;;;;1.50;1.30;;;7.50;98.20;;;;;;4994739;28;20498;-78
2024/01/29 03:15:46;;;;;;;1.57;1.30;;;7.50;98.20;;;;;;4979234;28;20479;-78
2024/01/29 03:18:12;;;;;;;1.53;1.20;;;7.50;98.20;;;;;;4969573;28;20496;-77
2024/01/29 03:20:39;;;;;;;1.57;1.23;;;7.50;98.20;;;;;;4984754;28;20461;-78
2024/01/29 03:23:07;;;;;;;1.57;1.30;;;7.50;98.20;;;;;;4985878;28;20526;-77
2024/01/29 03:25:33;;;;;;;1.50;1.30;;;7.50;98.20;;;;;;4980210;28;20476;-77
2024/01/29 03:28:00;;;;;;;1.60;1.40;;;7.50;98.20;;;;;;4979965;28;20506;-77
2024/01/29 03:30:27;;;;;;;1.50;1.20;;;7.50;98.20;;;;;;4979069;28;20496;-77
2024/01/29 03:32:57;;;;;;;1.50;1.30;;;7.40;98.20;;;;;;4981659;28;20623;-78
2024/01/29 03:35:23;;;;;;;1.53;1.20;;;7.40;98.20;;;;;;4984153;28;20543;-78
2024/01/29 03:37:50;;;;;;;1.57;1.30;;;7.40;98.20;;;;;;4986804;28;20595;-78
2024/01/29 03:40:17;;;;;;;1.50;1.27;;;7.40;98.20;;;;;;4982656;28;20531;-78
2024/01/29 03:42:44;;;;;;;1.60;1.33;;;7.40;98.20;;;;;;4981449;28;20488;-78
2024/01/29 03:45:11;;;;;;;1.50;1.20;;;7.40;98.20;;;;;;4981082;28;20470;-79
2024/01/29 03:47:38;;;;;;;1.53;1.20;;;7.30;98.20;;;;;;4982602;28;20574;-79
2024/01/29 03:50:07;;;;;;;1.50;1.20;;;7.30;98.20;;;;;;4975781;28;20462;-79
2024/01/29 03:52:34;;;;;;;1.60;1.30;;;7.30;98.20;;;;;;4984421;28;20492;-79
2024/01/29 03:55:01;;;;;;;1.53;1.30;;;7.40;98.20;;;;;;4979531;28;20879;-79
2024/01/29 03:57:28;;;;;;;1.53;1.30;;;7.40;98.20;;;;;;4983496;28;20483;-79
2024/01/29 03:59:56;;;;;;;1.57;1.30;;;7.40;98.20;;;;;;4983087;28;20467;-79
2024/01/29 04:02:23;;;;;;;1.57;1.20;;;7.40;98.20;;;;;;4978738;28;20556;-79
2024/01/29 04:04:50;;;;;;;1.57;1.20;;;7.30;98.20;;;;;;4978118;28;20460;-79
2024/01/29 04:07:18;;;;;;;1.83;1.73;;;7.30;98.20;;;;;;4988878;28;20477;-79
2024/01/29 04:09:45;;;;;;;1.53;1.30;;;7.30;98.20;;;;;;4989447;28;20465;-80
2024/01/29 04:12:12;;;;;;;1.60;1.30;;;7.30;98.20;;;;;;4987011;28;20506;-79
2024/01/29 04:14:38;;;;;;;1.50;1.20;;;7.30;98.20;;;;;;4984881;28;20487;-81
2024/01/29 04:17:06;;;;;;;1.53;1.30;;;7.30;98.20;;;;;;4983289;28;20487;-79
2024/01/29 04:19:33;;;;;;;1.60;1.30;;;7.30;98.20;;;;;;4990252;28;20543;-80
2024/01/29 04:22:00;;;;;;;1.57;1.20;;;7.30;98.20;;;;;;4979482;28;20563;-78
2024/01/29 04:24:29;;;;;;;1.60;1.30;;;7.30;98.20;;;;;;4991612;28;20465;-80
2024/01/29 04:26:56;;;;;;;1.60;1.27;;;7.20;98.20;;;;;;4974993;28;20480;-79
2024/01/29 04:29:23;;;;;;;1.60;1.30;;;7.20;98.20;;;;;;4994987;28;20853;-79
2024/01/29 04:31:49;;;;;;;1.60;1.30;;;7.20;98.20;;;;;;4977780;28;20484;-79
2024/01/29 04:34:16;;;;;;;1.53;1.20;;;7.30;98.20;;;;;;4996533;28;20468;-80
2024/01/29 04:36:49;;;;;;;1.50;1.20;;;7.30;98.20;;;;;;4977929;28;20488;-79
2024/01/29 04:39:16;;;;;;;1.53;1.30;;;7.30;98.20;;;;;;4987887;28;20469;-79
2024/01/29 04:41:44;;;;;;;1.60;1.30;;;7.30;98.20;;;;;;4980319;28;21233;-79
2024/01/29 04:44:11;;;;;;;1.53;1.20;;;7.30;98.20;;;;;;4990359;28;20489;-79
2024/01/29 04:46:38;;;;;;;1.60;1.30;;;7.30;98.20;;;;;;4980820;28;20483;-79
2024/01/29 04:49:04;;;;;;;1.53;1.20;;;7.30;98.20;;;;;;4991549;28;20520;-79
2024/01/29 04:51:31;;;;;;;1.57;1.20;;;7.30;98.20;;;;;;4983419;28;20559;-79
2024/01/29 04:54:01;;;;;;;1.57;1.30;;;7.20;98.20;;;;;;4991715;28;20573;-81
2024/01/29 04:56:28;;;;;;;1.57;1.30;;;7.20;98.20;;;;;;4976910;28;20646;-81
2024/01/29 04:58:56;;;;;;;1.53;1.30;;;7.20;98.20;;;;;;4996582;28;20556;-80
2024/01/29 05:01:23;;;;;;;1.60;1.30;;;7.20;98.20;;;;;;4976799;28;20467;-81
2024/01/29 05:03:50;;;;;;;1.53;1.20;;;7.20;98.20;;;;;;4994285;28;20568;-80
2024/01/29 05:06:16;;;;;;;1.50;1.23;;;7.20;98.20;;;;;;4979852;28;21065;-80
2024/01/29 05:08:44;;;;;;;1.50;1.20;;;7.20;98.20;;;;;;4992403;28;20986;-79
2024/01/29 05:11:11;;;;;;;1.60;1.30;;;7.20;98.20;;;;;;4974786;28;20485;-80
2024/01/29 05:13:38;;;;;;;1.53;1.30;;;7.20;98.20;;;;;;4984448;28;20571;-80
2024/01/29 05:16:07;;;;;;;1.53;1.20;;;7.20;98.20;;;;;;4974233;28;20533;-80
2024/01/29 05:18:36;;;;;;;1.53;1.20;;;7.20;98.20;;;;;;4996719;28;20467;-80
2024/01/29 05:21:03;;;;;;;1.50;1.20;;;7.10;98.20;;;;;;4980537;28;20458;-79
2024/01/29 05:23:30;;;;;;;1.60;1.43;;;7.10;98.20;;;;;;4993273;28;20489;-79
2024/01/29 05:25:57;;;;;;;2.20;1.97;;;7.10;98.20;;;;;;4977447;28;20985;-79
2024/01/29 05:28:23;;;;;;;1.57;1.23;;;7.10;98.20;;;;;;4996622;28;20465;-79
2024/01/29 05:30:52;;;;;;;1.50;1.30;;;7.10;98.20;;;;;;4975218;28;20471;-80
2024/01/29 05:33:20;;;;;;;1.57;1.30;;;7.10;98.20;;;;;;5000787;28;20562;-79
2024/01/29 05:35:53;;;;;;;1.60;1.50;;;7.10;98.20;;;;;;4975130;28;20480;-80
2024/01/29 05:38:20;;;;;;;1.70;1.60;;;7.10;98.20;;;;;;5001862;28;20481;-79
2024/01/29 05:40:47;;;;;;;1.60;1.30;;;7.00;98.20;;;;;;4976006;28;20470;-80
2024/01/29 05:43:14;;;;;;;1.53;1.23;;;7.00;98.20;;;;;;4996332;28;20494;-79
2024/01/29 05:45:41;;;;;;;1.50;1.20;;;6.90;98.20;;;;;;4986723;28;20492;-79
2024/01/29 05:48:08;;;;;;;1.53;1.27;;;6.90;98.20;;;;;;4984430;28;20485;-80
2024/01/29 05:50:36;;;;;;;1.60;1.30;;;6.90;98.20;;;;;;4973400;28;20469;-78
2024/01/29 05:53:03;;;;;;;1.60;1.40;;;6.80;98.20;;;;;;4978358;28;20486;-80
2024/01/29 05:55:30;;;;;;;1.53;1.20;;;6.90;98.20;;;;;;4970337;28;20537;-80
2024/01/29 05:57:57;;;;;;;1.50;1.20;;;6.80;98.20;;;;;;4976583;28;20576;-80
2024/01/29 06:00:24;;;;;;;9.37;4.40;;;6.80;98.20;;;;;;4973060;28;20466;-80
2024/01/29 06:02:50;;;;;;;1.60;1.40;;;6.80;98.20;;;;;;4969426;28;20489;-79
2024/01/29 06:05:17;;;;;;;1.57;1.30;;;6.80;98.20;;;;;;4973183;28;20461;-80
2024/01/29 06:07:45;;;;;;;1.53;1.30;;;6.80;98.20;;;;;;4973326;28;20609;-80
2024/01/29 06:10:14;;;;;;;1.57;1.30;;;6.80;98.20;;;;;;4967829;28;20474;-79
2024/01/29 06:12:41;;;;;;;1.50;1.20;;;6.80;98.20;;;;;;4971076;28;20477;-80
2024/01/29 06:15:09;;;;;;;1.57;1.30;;;6.70;98.20;;;;;;4971046;28;20545;-79
2024/01/29 06:17:36;;;;;;;1.60;1.30;;;6.70;98.20;;;;;;4971082;28;20511;-81
2024/01/29 06:20:03;;;;;;;1.60;1.30;;;6.70;98.20;;;;;;4972061;28;20468;-78
2024/01/29 06:22:39;;;;;;;1.60;1.37;;;6.70;98.20;;;;;;4974568;28;20473;-79
2024/01/29 06:25:08;;;;;;;1.60;1.30;;;6.70;98.20;;;;;;4968405;28;20506;-80
2024/01/29 06:27:35;;;;;;;1.60;1.40;;;6.70;98.20;;;;;;4974690;28;20523;-80
2024/01/29 06:30:02;;;;;;;1.60;1.40;;;6.70;98.20;;;;;;4972699;28;21189;-80
2024/01/29 06:32:29;;;;;;;1.57;1.27;;;6.70;98.20;;;;;;4969732;28;20885;-81
2024/01/29 06:34:57;;;;;;;1.53;1.30;;;6.60;98.20;;;;;;4973717;28;20466;-79
2024/01/29 06:37:34;;;;;;;2.63;2.43;;;6.60;98.20;;;;;;4969061;28;20481;-80
2024/01/29 06:40:01;;;;;;;1.57;1.20;;;6.60;98.20;;;;;;4970356;28;20594;-79
2024/01/29 06:42:30;;;;;;;1.57;1.30;;;6.50;98.20;;;;;;4966434;28;20477;-77
2024/01/29 06:44:56;;;;;;;1.50;1.20;;;6.50;98.20;;;;;;4967924;28;20462;-79
2024/01/29 06:47:26;;;;;;;1.57;1.30;;;6.50;98.20;;;;;;4971863;28;20480;-80
2024/01/29 06:49:58;;;;;;;1.53;1.20;;;6.50;98.20;;;;;;4971294;28;20469;-79
2024/01/29 06:52:25;;;;;;;1.53;1.20;;;6.50;98.20;;;;;;4970149;28;20499;-80
2024/01/29 06:54:52;;;;;;;1.57;1.30;;;6.50;98.20;;;;;;4970399;28;20922;-78
2024/01/29 06:57:19;;;;;;;1.60;1.30;;;6.50;98.20;;;;;;4972552;28;20596;-79
2024/01/29 06:59:47;;;;;;;1.57;1.30;;;6.40;98.20;;;;;;4973573;28;20563;-80
2024/01/29 07:02:14;;;;;;;1.60;1.40;;;6.40;98.20;;;;;;4972046;28;20492;-80
2024/01/29 07:04:42;;;;;;;1.60;1.40;;;6.40;98.20;;;;;;4976192;28;21102;-80
2024/01/29 07:07:09;;;;;;;1.60;1.30;;;6.40;98.20;;;;;;4973699;28;21060;-80
2024/01/29 07:09:36;;;;;;;1.60;1.40;;;6.40;98.20;;;;;;4974043;28;20989;-80
2024/01/29 07:12:03;;;;;;;1.57;1.30;;;6.40;98.20;;;;;;4965215;28;20764;-79
2024/01/29 07:14:30;;;;;;;1.60;1.30;;;6.40;98.20;;;;;;4976407;28;20477;-80
2024/01/29 07:16:58;;;;;;;1.57;1.20;;;6.40;98.20;;;;;;4964681;28;21096;-79
2024/01/29 07:19:27;;;;;;;1.50;1.23;;;6.30;98.20;;;;;;4976459;28;20470;-78
2024/01/29 07:21:54;;;;;;;1.60;1.30;;;6.30;98.20;;;;;;4958219;28;20493;-79
2024/01/29 07:24:21;;;;;;;1.57;1.27;;;6.40;98.20;;;;;;4970217;28;20521;-78
2024/01/29 07:26:48;;;;;;;1.50;1.30;;;6.30;98.20;;;;;;4955878;28;20569;-79
2024/01/29 07:29:15;;;;;;;1.57;1.20;;;6.30;98.20;;;;;;4975783;28;20470;-79
2024/01/29 07:31:41;;;;;;;1.53;1.30;;;6.30;98.20;;;;;;4964703;28;20488;-79
2024/01/29 07:34:10;;;;;;;1.60;1.30;;;6.30;98.20;;;;;;4973928;28;20577;-79
2024/01/29 07:36:38;;;;;;;1.50;1.30;;;6.30;98.20;;;;;;4960707;28;21028;-80
2024/01/29 07:39:05;;;;;;;1.60;1.30;;;6.30;98.20;;;;;;4976021;28;20461;-80
2024/01/29 07:41:32;;;;;;;1.60;1.30;;;6.30;98.20;;;;;;4963901;28;20481;-79
2024/01/29 07:43:58;;;;;;;1.60;1.50;;;6.30;98.20;;;;;;4979132;28;20524;-81
2024/01/29 07:46:25;;;;;;;1.60;1.30;;;6.30;98.20;;;;;;4962773;28;20481;-78
2024/01/29 07:49:04;;;;;;;1.53;1.30;;;6.30;98.20;;;;;;4975567;28;20991;-81
2024/01/29 07:51:32;;;;;;;1.60;1.40;;;6.30;98.20;;;;;;4959371;28;20526;-79
2024/01/29 07:54:03;;;;;;;4.73;3.57;;;6.40;98.20;;;;;;4977441;28;20878;-79
2024/01/29 07:56:30;;;;;;;1.50;1.20;;;6.40;98.20;;;;;;4962419;28;20997;-79
2024/01/29 07:58:57;;;;;;;1.57;1.30;;;6.40;98.20;;;;;;4977330;28;20466;-80
2024/01/29 08:01:24;;;;;;;1.60;1.30;;;6.50;98.20;;;;;;4961827;28;21000;-80
2024/01/29 08:03:51;;;;;;;1.83;1.73;;;6.50;98.20;;;;;;4975960;28;20866;-79
2024/01/29 08:06:18;;;;;;;1.60;1.20;;;6.60;98.20;;;;;;4960015;28;20483;-80
2024/01/29 08:08:46;;;;;;;1.60;1.30;;;6.60;98.20;;;;;;4977285;28;20465;-81
2024/01/29 08:11:13;;;;;;;1.60;1.20;;;6.60;98.20;;;;;;4955333;28;20532;-78
2024/01/29 08:13:40;;;;;;;1.60;1.30;;;6.70;98.20;;;;;;4977205;28;21094;-80
2024/01/29 08:16:07;;;;;;;1.57;1.20;;;6.80;98.20;;;;;;4956644;28;20485;-78
2024/01/29 08:18:34;;;;;;;1.60;1.30;;;6.90;98.20;;;;;;4978294;28;20496;-80
2024/01/29 08:21:04;;;;;;;1.60;1.40;;;7.00;98.20;;;;;;4956891;28;20462;-80
2024/01/29 08:23:31;;;;;;;1.60;1.30;;;7.00;98.20;;;;;;4981915;28;20491;-79
2024/01/29 08:25:59;;;;;;;1.60;1.30;;;7.10;98.20;;;;;;4959162;28;20976;-79
2024/01/29 08:28:26;;;;;;;1.60;1.30;;;7.20;98.20;;;;;;4977968;28;20470;-79
2024/01/29 08:30:55;;;;;;;1.60;1.30;;;7.30;98.20;;;;;;4956341;28;20466;-83
2024/01/29 08:33:22;;;;;;;1.53;1.20;;;7.30;98.20;;;;;;4981739;28;20584;-78
2024/01/29 08:35:49;;;;;;;1.60;1.40;;;7.40;98.20;;;;;;4954485;28;21075;-82
2024/01/29 08:38:16;;;;;;;1.50;1.10;;;7.50;98.20;;;;;;4983192;28;20969;-80
2024/01/29 08:40:43;;;;;;;1.53;1.20;;;7.60;98.20;;;;;;4966209;28;20489;-80
2024/01/29 08:43:11;;;;;;;1.60;1.30;;;7.70;98.20;;;;;;4969378;28;20485;-80
2024/01/29 08:45:39;;;;;;;1.57;1.23;;;7.80;98.20;;;;;;4965855;28;20973;-78
2024/01/29 08:48:06;;;;;;;1.60;1.33;;;7.90;98.20;;;;;;4974109;28;20548;-80
2024/01/29 08:50:33;;;;;;;1.53;1.20;;;7.90;98.20;;;;;;4967212;28;20471;-80
2024/01/29 08:53:00;;;;;;;1.53;1.20;;;7.90;98.20;;;;;;4971434;28;20927;-80
2024/01/29 08:55:27;;;;;;;1.60;1.20;;;8.00;98.20;;;;;;4970725;28;20466;-82
2024/01/29 08:57:54;;;;;;;1.60;1.30;;;8.10;98.20;;;;;;4975297;28;20477;-79
2024/01/29 09:00:22;;;;;;;1.57;1.20;;;8.20;98.20;;;;;;4970693;28;20472;-81
2024/01/29 09:02:49;;;;;;;1.50;1.10;;;8.20;98.20;;;;;;4974239;28;20892;-80
2024/01/29 09:05:16;;;;;;;1.53;1.20;;;8.30;98.20;;;;;;4957325;28;20480;-81
2024/01/29 09:07:43;;;;;;;1.50;1.10;;;8.40;98.20;;;;;;4972929;28;20986;-81
2024/01/29 09:10:11;;;;;;;1.50;1.20;;;8.40;98.20;;;;;;4940581;28;20756;-80
2024/01/29 09:12:38;;;;;;;1.57;1.20;;;8.50;98.20;;;;;;4938516;28;20478;-78
2024/01/29 09:15:06;;;;;;;1.53;1.20;;;8.50;98.20;;;;;;4941113;28;20938;-79
2024/01/29 09:17:34;;;;;;;1.53;1.10;;;8.60;98.20;;;;;;4947323;28;20495;-80
2024/01/29 09:20:01;;;;;;;2.13;1.93;;;8.60;98.20;;;;;;4969857;28;20557;-81
2024/01/29 09:22:28;;;;;;;1.57;1.20;;;8.70;98.20;;;;;;4964413;28;21352;-82
2024/01/29 09:24:54;;;;;;;1.60;1.30;;;8.80;98.20;;;;;;4969397;28;20480;-80
2024/01/29 09:27:21;;;;;;;1.50;1.20;;;8.80;98.20;;;;;;4970240;28;20492;-80
2024/01/29 09:29:48;;;;;;;1.50;1.10;;;8.80;98.20;;;;;;4973853;28;20478;-83
2024/01/29 09:32:15;;;;;;;1.70;1.40;;;8.90;98.20;;;;;;4969970;28;20491;-82
2024/01/29 09:34:43;;;;;;;1.60;1.27;;;8.90;98.20;;;;;;4973001;28;20524;-81
2024/01/29 09:37:10;;;;;;;1.60;1.30;;;8.90;98.20;;;;;;4963322;28;21214;-82
2024/01/29 09:40:05;;;;;;;4.97;4.57;;;9.00;98.20;;;;;;4971019;28;20854;-82
2024/01/29 09:42:34;;;;;;;1.53;1.10;;;9.00;98.20;;;;;;4971448;28;21114;-83
2024/01/29 09:45:02;;;;;;;1.70;1.47;;;9.10;98.20;;;;;;4968389;28;20497;-82
2024/01/29 09:47:29;;;;;;;1.50;1.10;;;9.10;98.20;;;;;;4973218;28;21035;-81
2024/01/29 09:49:58;;;;;;;1.50;1.10;;;9.20;98.20;;;;;;4969691;28;20854;-82
2024/01/29 09:52:26;;;;;;;1.60;1.20;;;9.30;98.20;;;;;;4967209;28;20495;-83
2024/01/29 09:54:54;;;;;;;1.50;1.10;;;9.30;98.20;;;;;;4970225;28;20465;-82
2024/01/29 09:57:21;;;;;;;1.60;1.40;;;9.40;98.20;;;;;;4972935;28;20489;-80
2024/01/29 09:59:48;;;;;;;1.50;1.10;;;9.40;98.20;;;;;;4971254;28;20552;-81
2024/01/29 10:02:17;;;;;;;1.60;1.10;;;9.50;98.20;;;;;;4964682;28;20581;-82
2024/01/29 10:04:44;;;;;;;1.63;1.53;;;9.60;98.20;;;;;;4972503;28;20934;-79
2024/01/29 10:07:12;;;;;;;1.60;1.20;;;9.70;98.20;;;;;;4969364;28;20813;-82
2024/01/29 10:09:39;;;;;;;2.13;1.87;;;9.80;98.20;;;;;;4965181;28;20471;-82
2024/01/29 10:12:07;;;;;;;1.60;1.20;;;9.80;98.20;;;;;;4968380;28;20711;-78
2024/01/29 10:14:33;;;;;;;1.50;1.10;;;9.80;98.20;;;;;;4973569;28;20486;-83
2024/01/29 10:17:00;;;;;;;1.60;1.20;;;9.80;98.20;;;;;;4962378;28;20572;-80
2024/01/29 10:19:36;;;;;;;1.57;1.10;;;9.90;98.20;;;;;;4973843;28;20469;-81
2024/01/29 10:22:03;;;;;;;1.53;1.10;;;9.90;98.20;;;;;;4968154;28;20483;-81
2024/01/29 10:24:31;;;;;;;1.53;1.20;;;10.00;98.20;;;;;;4974720;28;20474;-81
2024/01/29 10:27:06;;;;;;;1.53;1.10;;;10.10;98.20;;;;;;4958971;28;20513;-82
2024/01/29 10:29:34;;;;;;;1.60;1.10;;;10.20;98.20;;;;;;4967948;28;20465;-81
2024/01/29 10:32:01;;;;;;;1.60;1.20;;;10.20;98.20;;;;;;4958222;28;20473;-80
2024/01/29 10:34:29;;;;;;;1.53;1.10;;;10.20;98.20;;;;;;4968489;28;20486;-80
2024/01/29 10:36:59;;;;;;;1.60;1.10;;;10.20;98.20;;;;;;4963274;28;20844;-79
2024/01/29 10:39:28;;;;;;;1.50;1.10;;;10.20;98.20;;;;;;4969779;28;20474;-82
2024/01/29 10:41:57;;;;;;;1.60;1.30;;;10.20;98.20;;;;;;4963816;28;20481;-80
2024/01/29 10:44:26;;;;;;;1.57;1.10;;;10.20;98.20;;;;;;4972973;28;20454;-83
2024/01/29 10:46:59;;;;;;;1.53;1.10;;;10.30;98.20;;;;;;4960864;28;20904;-83
2024/01/29 10:49:26;;;;;;;1.50;1.10;;;10.30;98.20;;;;;;4967094;28;20469;-83
2024/01/29 10:51:54;;;;;;;1.50;1.10;;;10.40;98.20;;;;;;4956992;28;20666;-82
2024/01/29 10:54:21;;;;;;;1.50;1.10;;;10.50;98.20;;;;;;4972067;28;20507;-82
2024/01/29 10:56:48;;;;;;;3.40;3.17;;;10.60;98.20;;;;;;4962395;28;20561;-82
2024/01/29 10:59:20;;;;;;;1.50;1.10;;;10.70;98.20;;;;;;4974570;28;20556;-79
2024/01/29 11:01:47;;;;;;;1.50;1.00;;;10.70;98.20;;;;;;4964395;28;20489;-79
2024/01/29 11:04:16;;;;;;;1.50;1.10;;;10.80;98.20;;;;;;4972108;28;20490;-81
2024/01/29 11:06:51;;;;;;;1.60;1.30;;;10.90;98.20;;;;;;4961554;28;20516;-80
2024/01/29 11:09:24;;;;;;;1.50;1.10;;;11.00;98.20;;;;;;4968534;28;20968;-80
2024/01/29 11:11:52;;;;;;;1.57;1.10;;;11.00;98.20;;;;;;4959682;28;20477;-81
2024/01/29 11:14:24;;;;;;;1.73;1.50;;;11.10;98.20;;;;;;4969297;28;20501;-81
2024/01/29 11:17:05;;;;;;;1.60;1.13;;;11.20;98.20;;;;;;4969397;28;21262;-78
2024/01/29 11:19:35;;;;;;;1.53;1.00;;;11.30;98.20;;;;;;4973158;28;20466;-79
2024/01/29 11:22:07;;;;;;;1.57;1.10;;;11.50;98.20;;;;;;4970336;28;20481;-78
2024/01/29 11:24:44;;;;;;;2.23;1.93;;;11.60;98.20;;;;;;4972723;28;20470;-81
2024/01/29 11:27:36;;;;;;;1.57;1.00;;;11.80;98.20;;;;;;4965154;28;20477;-80
2024/01/29 11:30:15;;;;;;;1.60;1.10;;;11.90;98.20;;;;;;4958949;28;20470;-80
2024/01/29 11:33:03;;;;;;;1.70;1.50;;;12.00;98.20;;;;;;4967104;28;20590;-79
2024/01/29 11:35:49;;;;;;;2.17;1.97;;;12.20;98.20;;;;;;4967470;28;20516;-80
2024/01/29 11:38:23;;;;;;;1.60;1.10;;;12.30;98.20;;;;;;4958317;28;20477;-81
2024/01/29 11:41:35;;;;;;;1.50;1.00;;;12.30;98.20;;;;;;4955124;28;20477;-80
2024/01/29 11:44:21;;;;;;;1.53;1.10;;;12.50;98.20;;;;;;4954679;28;20478;-81
2024/01/29 11:46:51;;;;;;;1.50;1.00;;;12.60;98.20;;;;;;4952870;28;20502;-80
2024/01/29 11:50:03;;;;;;;1.57;1.00;;;12.70;98.20;;;;;;4970632;28;20465;-81
2024/01/29 11:52:40;;;;;;;1.53;1.00;;;12.70;98.20;;;;;;4925853;28;20483;-80
2024/01/29 12:01:34;;;;;;;1.57;1.10;;;12.80;98.20;;;;;;4878848;29;20469;-78
2024/01/29 12:04:11;;;;;;;1.50;1.00;;;12.90;98.20;;;;;;4891468;28;20561;-78
2024/01/29 12:06:44;;;;;;;1.53;1.00;;;13.00;98.20;;;;;;4953889;28;20488;-81
2024/01/29 12:09:14;;;;;;;2.57;2.37;;;13.00;97.50;;;;;;4980199;28;20471;-80
2024/01/29 12:11:49;;;;;;;1.53;1.00;;;12.90;97.60;;;;;;4963739;28;20590;-80
2024/01/29 12:14:26;;;;;;;1.60;1.20;;;12.80;97.70;;;;;;4971799;28;20486;-81
2024/01/29 12:17:05;;;;;;;1.50;1.00;;;12.80;98.00;;;;;;4964096;28;20483;-81
2024/01/29 12:19:34;;;;;;;1.53;1.00;;;12.70;97.90;;;;;;4966723;28;20462;-81
2024/01/29 12:22:01;;;;;;;2.37;2.10;;;12.70;98.20;;;;;;4966609;28;20469;-79
2024/01/29 12:24:33;;;;;;;1.57;1.00;;;12.60;98.20;;;;;;4974692;28;20498;-81
2024/01/29 12:27:07;;;;;;;1.50;1.03;;;12.70;98.20;;;;;;4962289;28;20508;-79
2024/01/29 12:29:36;;;;;;;1.50;1.00;;;12.70;98.20;;;;;;4978059;28;20493;-80
2024/01/29 12:32:11;;;;;;;1.57;1.00;;;12.70;98.20;;;;;;4968293;28;20516;-79
2024/01/29 12:34:46;;;;;;;2.27;1.70;;;12.80;98.20;;;;;;4974610;28;20907;-80
2024/01/29 12:37:42;;;;;;;1.53;1.00;;;12.90;98.20;;;;;;4970080;28;21166;-81
2024/01/29 12:40:16;;;;;;;1.70;1.57;;;12.90;98.20;;;;;;4972805;28;20470;-80
2024/01/29 12:42:43;;;;;;;1.53;1.00;;;12.90;98.00;;;;;;4971205;28;20527;-80
2024/01/29 12:45:18;;;;;;;1.53;1.00;;;12.90;98.20;;;;;;4970495;28;21029;-80
2024/01/29 12:47:45;;;;;;;1.57;1.00;;;12.90;98.20;;;;;;4977229;28;20488;-80
2024/01/29 12:50:15;;;;;;;1.53;1.00;;;13.00;98.20;;;;;;4965318;28;20466;-80
2024/01/29 12:52:43;;;;;;;1.50;1.00;;;13.00;98.00;;;;;;4974968;28;20519;-81
2024/01/29 12:55:09;;;;;;;1.57;1.00;;;13.00;98.20;;;;;;4966935;28;20542;-81
2024/01/29 12:57:36;;;;;;;1.50;1.00;;;13.00;98.00;;;;;;4970049;28;21229;-79
2024/01/29 13:00:03;;;;;;;1.60;1.10;;;13.10;98.20;;;;;;4965487;28;20464;-79
2024/01/29 13:02:30;;;;;;;1.50;1.00;;;13.20;98.20;;;;;;4973287;28;20501;-79
2024/01/29 13:04:57;;;;;;;1.53;1.00;;;13.30;98.00;;;;;;4968553;28;20505;-80
2024/01/29 13:07:26;;;;;;;1.53;1.00;;;13.40;97.60;;;;;;4971522;28;20485;-81
2024/01/29 13:09:53;;;;;;;1.60;1.00;;;13.50;97.80;;;;;;4967412;28;20465;-80